sensor_id;sensor_type;location;lat;lon;timestamp;P1;durP1;ratioP1;P2;durP2;ratioP2
1460;SDS011;724;49.910;12.530;2023-04-25T00:02:06;1.70;;;1.60;;
1460;SDS011;724;49.910;12.530;2023-04-25T00:04:35;1.80;;;1.70;;
1460;SDS011;724;49.910;12.530;2023-04-25T00:07:02;1.50;;;1.40;;
1460;SDS011;724;49.910;12.530;2023-04-25T00:09:30;1.60;;;1.50;;
1460;SDS011;724;49.910;12.530;2023-04-25T00:11:57;1.40;;;1.30;;
1460;SDS011;724;49.910;12.530;2023-04-25T00:14:24;1.80;;;1.70;;
1460;SDS011;724;49.910;12.530;2023-04-25T00:16:52;2.00;;;1.90;;
1460;SDS011;724;49.910;12.530;2023-04-25T00:19:19;2.00;;;1.90;;
1460;SDS011;724;49.910;12.530;2023-04-25T00:21:47;2.40;;;2.20;;
1460;SDS011;724;49.910;12.530;2023-04-25T00:24:14;2.40;;;2.20;;
1460;SDS011;724;49.910;12.530;2023-04-25T00:26:41;1.80;;;1.70;;
1460;SDS011;724;49.910;12.530;2023-04-25T00:29:08;1.60;;;1.50;;
1460;SDS011;724;49.910;12.530;2023-04-25T00:31:35;1.70;;;1.60;;
1460;SDS011;724;49.910;12.530;2023-04-25T00:34:01;1.80;;;1.70;;
1460;SDS011;724;49.910;12.530;2023-04-25T00:36:28;2.42;;;2.22;;
1460;SDS011;724;49.910;12.530;2023-04-25T00:38:57;2.30;;;2.10;;
1460;SDS011;724;49.910;12.530;2023-04-25T00:41:23;2.47;;;2.28;;
1460;SDS011;724;49.910;12.530;2023-04-25T00:43:51;2.53;;;2.33;;
1460;SDS011;724;49.910;12.530;2023-04-25T00:46:19;2.90;;;2.70;;
1460;SDS011;724;49.910;12.530;2023-04-25T00:48:46;2.40;;;2.20;;
1460;SDS011;724;49.910;12.530;2023-04-25T00:51:13;2.40;;;2.20;;
1460;SDS011;724;49.910;12.530;2023-04-25T00:53:42;2.40;;;2.20;;
1460;SDS011;724;49.910;12.530;2023-04-25T00:56:12;2.80;;;2.60;;
1460;SDS011;724;49.910;12.530;2023-04-25T00:58:39;2.60;;;2.40;;
1460;SDS011;724;49.910;12.530;2023-04-25T01:01:07;2.60;;;2.40;;
1460;SDS011;724;49.910;12.530;2023-04-25T01:03:34;2.70;;;2.50;;
1460;SDS011;724;49.910;12.530;2023-04-25T01:06:05;2.88;;;2.67;;
1460;SDS011;724;49.910;12.530;2023-04-25T01:08:33;2.90;;;2.70;;
1460;SDS011;724;49.910;12.530;2023-04-25T01:11:00;3.00;;;2.80;;
1460;SDS011;724;49.910;12.530;2023-04-25T01:13:29;3.35;;;3.15;;
1460;SDS011;724;49.910;12.530;2023-04-25T01:15:56;3.45;;;3.25;;
1460;SDS011;724;49.910;12.530;2023-04-25T01:18:23;3.70;;;3.50;;
1460;SDS011;724;49.910;12.530;2023-04-25T01:20:51;3.80;;;3.60;;
1460;SDS011;724;49.910;12.530;2023-04-25T01:23:20;4.10;;;3.90;;
1460;SDS011;724;49.910;12.530;2023-04-25T01:25:48;4.40;;;4.10;;
1460;SDS011;724;49.910;12.530;2023-04-25T01:28:15;4.50;;;4.20;;
1460;SDS011;724;49.910;12.530;2023-04-25T01:30:42;4.80;;;4.50;;
1460;SDS011;724;49.910;12.530;2023-04-25T01:33:09;4.72;;;4.43;;
1460;SDS011;724;49.910;12.530;2023-04-25T01:35:37;3.95;;;3.75;;
1460;SDS011;724;49.910;12.530;2023-04-25T01:38:04;3.90;;;3.70;;
1460;SDS011;724;49.910;12.530;2023-04-25T01:40:32;4.10;;;3.90;;
1460;SDS011;724;49.910;12.530;2023-04-25T01:43:00;3.95;;;3.75;;
1460;SDS011;724;49.910;12.530;2023-04-25T01:45:27;3.90;;;3.70;;
1460;SDS011;724;49.910;12.530;2023-04-25T01:47:54;3.90;;;3.70;;
1460;SDS011;724;49.910;12.530;2023-04-25T01:50:24;3.90;;;3.70;;
1460;SDS011;724;49.910;12.530;2023-04-25T01:52:51;4.10;;;3.90;;
1460;SDS011;724;49.910;12.530;2023-04-25T01:55:18;4.65;;;4.35;;
1460;SDS011;724;49.910;12.530;2023-04-25T01:57:47;5.00;;;4.70;;
1460;SDS011;724;49.910;12.530;2023-04-25T02:00:13;5.55;;;5.25;;
1460;SDS011;724;49.910;12.530;2023-04-25T02:02:40;5.63;;;5.32;;
1460;SDS011;724;49.910;12.530;2023-04-25T02:05:07;5.60;;;5.30;;
1460;SDS011;724;49.910;12.530;2023-04-25T02:07:34;5.03;;;4.72;;
1460;SDS011;724;49.910;12.530;2023-04-25T02:10:01;5.00;;;4.70;;
1460;SDS011;724;49.910;12.530;2023-04-25T02:12:28;5.03;;;4.72;;
1460;SDS011;724;49.910;12.530;2023-04-25T02:14:57;4.80;;;4.50;;
1460;SDS011;724;49.910;12.530;2023-04-25T02:17:23;4.75;;;4.45;;
1460;SDS011;724;49.910;12.530;2023-04-25T02:19:51;4.30;;;4.00;;
1460;SDS011;724;49.910;12.530;2023-04-25T02:22:18;3.90;;;3.70;;
1460;SDS011;724;49.910;12.530;2023-04-25T02:24:45;3.60;;;3.40;;
1460;SDS011;724;49.910;12.530;2023-04-25T02:27:12;3.90;;;3.70;;
1460;SDS011;724;49.910;12.530;2023-04-25T02:29:38;3.53;;;3.33;;
1460;SDS011;724;49.910;12.530;2023-04-25T02:32:06;3.20;;;3.00;;
1460;SDS011;724;49.910;12.530;2023-04-25T02:34:33;3.60;;;3.40;;
1460;SDS011;724;49.910;12.530;2023-04-25T02:37:00;3.50;;;3.30;;
1460;SDS011;724;49.910;12.530;2023-04-25T02:39:27;3.50;;;3.30;;
1460;SDS011;724;49.910;12.530;2023-04-25T02:41:53;3.15;;;2.95;;
1460;SDS011;724;49.910;12.530;2023-04-25T02:44:20;3.60;;;3.40;;
1460;SDS011;724;49.910;12.530;2023-04-25T02:46:47;3.00;;;2.80;;
1460;SDS011;724;49.910;12.530;2023-04-25T02:49:15;3.00;;;2.80;;
1460;SDS011;724;49.910;12.530;2023-04-25T02:51:42;2.90;;;2.70;;
1460;SDS011;724;49.910;12.530;2023-04-25T02:54:08;3.20;;;3.00;;
1460;SDS011;724;49.910;12.530;2023-04-25T02:56:35;2.78;;;2.58;;
1460;SDS011;724;49.910;12.530;2023-04-25T02:59:02;3.00;;;2.80;;
1460;SDS011;724;49.910;12.530;2023-04-25T03:01:29;2.80;;;2.60;;
1460;SDS011;724;49.910;12.530;2023-04-25T03:03:55;2.50;;;2.30;;
1460;SDS011;724;49.910;12.530;2023-04-25T03:06:23;3.10;;;2.90;;
1460;SDS011;724;49.910;12.530;2023-04-25T03:08:50;2.50;;;2.30;;
1460;SDS011;724;49.910;12.530;2023-04-25T03:11:17;2.97;;;2.78;;
1460;SDS011;724;49.910;12.530;2023-04-25T03:13:45;3.05;;;2.85;;
1460;SDS011;724;49.910;12.530;2023-04-25T03:16:11;2.90;;;2.70;;
1460;SDS011;724;49.910;12.530;2023-04-25T03:18:38;2.78;;;2.58;;
1460;SDS011;724;49.910;12.530;2023-04-25T03:21:05;2.90;;;2.70;;
1460;SDS011;724;49.910;12.530;2023-04-25T03:23:33;2.50;;;2.30;;
1460;SDS011;724;49.910;12.530;2023-04-25T03:26:00;2.40;;;2.20;;
1460;SDS011;724;49.910;12.530;2023-04-25T03:28:27;2.00;;;1.90;;
1460;SDS011;724;49.910;12.530;2023-04-25T03:30:54;1.90;;;1.80;;
1460;SDS011;724;49.910;12.530;2023-04-25T03:33:20;1.92;;;1.83;;
1460;SDS011;724;49.910;12.530;2023-04-25T03:35:47;1.60;;;1.50;;
1460;SDS011;724;49.910;12.530;2023-04-25T03:38:14;1.70;;;1.60;;
1460;SDS011;724;49.910;12.530;2023-04-25T03:40:43;1.80;;;1.70;;
1460;SDS011;724;49.910;12.530;2023-04-25T03:43:09;1.60;;;1.50;;
1460;SDS011;724;49.910;12.530;2023-04-25T03:45:36;1.30;;;1.20;;
1460;SDS011;724;49.910;12.530;2023-04-25T03:48:03;1.60;;;1.50;;
1460;SDS011;724;49.910;12.530;2023-04-25T03:50:30;1.40;;;1.30;;
1460;SDS011;724;49.910;12.530;2023-04-25T03:52:57;1.33;;;1.23;;
1460;SDS011;724;49.910;12.530;2023-04-25T03:55:23;1.60;;;1.50;;
1460;SDS011;724;49.910;12.530;2023-04-25T03:57:52;1.70;;;1.60;;
1460;SDS011;724;49.910;12.530;2023-04-25T04:00:18;1.60;;;1.50;;
1460;SDS011;724;49.910;12.530;2023-04-25T04:02:45;1.70;;;1.60;;
1460;SDS011;724;49.910;12.530;2023-04-25T04:05:12;1.70;;;1.60;;
1460;SDS011;724;49.910;12.530;2023-04-25T04:07:39;1.92;;;1.83;;
1460;SDS011;724;49.910;12.530;2023-04-25T04:10:07;1.60;;;1.50;;
1460;SDS011;724;49.910;12.530;2023-04-25T04:12:35;1.80;;;1.70;;
1460;SDS011;724;49.910;12.530;2023-04-25T04:15:03;1.80;;;1.70;;
1460;SDS011;724;49.910;12.530;2023-04-25T04:17:31;1.67;;;1.58;;
1460;SDS011;724;49.910;12.530;2023-04-25T04:20:00;1.50;;;1.40;;
1460;SDS011;724;49.910;12.530;2023-04-25T04:22:28;1.33;;;1.23;;
1460;SDS011;724;49.910;12.530;2023-04-25T04:24:55;1.50;;;1.40;;
1460;SDS011;724;49.910;12.530;2023-04-25T04:27:22;1.58;;;1.48;;
1460;SDS011;724;49.910;12.530;2023-04-25T04:29:49;1.40;;;1.30;;
1460;SDS011;724;49.910;12.530;2023-04-25T04:32:18;1.40;;;1.30;;
1460;SDS011;724;49.910;12.530;2023-04-25T04:34:45;1.42;;;1.33;;
1460;SDS011;724;49.910;12.530;2023-04-25T04:37:13;1.50;;;1.40;;
1460;SDS011;724;49.910;12.530;2023-04-25T04:39:40;1.60;;;1.50;;
1460;SDS011;724;49.910;12.530;2023-04-25T04:42:07;1.90;;;1.80;;
1460;SDS011;724;49.910;12.530;2023-04-25T04:44:36;2.30;;;2.10;;
1460;SDS011;724;49.910;12.530;2023-04-25T04:47:04;2.50;;;2.30;;
1460;SDS011;724;49.910;12.530;2023-04-25T04:49:33;2.20;;;2.00;;
1460;SDS011;724;49.910;12.530;2023-04-25T04:52:00;1.70;;;1.60;;
1460;SDS011;724;49.910;12.530;2023-04-25T04:54:26;1.50;;;1.40;;
1460;SDS011;724;49.910;12.530;2023-04-25T04:56:53;1.52;;;1.42;;
1460;SDS011;724;49.910;12.530;2023-04-25T04:59:20;1.70;;;1.60;;
1460;SDS011;724;49.910;12.530;2023-04-25T05:01:47;1.80;;;1.70;;
1460;SDS011;724;49.910;12.530;2023-04-25T05:04:13;2.00;;;1.90;;
1460;SDS011;724;49.910;12.530;2023-04-25T05:06:41;1.90;;;1.80;;
1460;SDS011;724;49.910;12.530;2023-04-25T05:09:09;2.00;;;1.90;;
1460;SDS011;724;49.910;12.530;2023-04-25T05:11:36;2.55;;;2.35;;
1460;SDS011;724;49.910;12.530;2023-04-25T05:14:02;2.50;;;2.30;;
1460;SDS011;724;49.910;12.530;2023-04-25T05:16:29;2.60;;;2.40;;
1460;SDS011;724;49.910;12.530;2023-04-25T05:18:56;2.30;;;2.10;;
1460;SDS011;724;49.910;12.530;2023-04-25T05:21:22;1.90;;;1.80;;
1460;SDS011;724;49.910;12.530;2023-04-25T05:23:51;1.90;;;1.80;;
1460;SDS011;724;49.910;12.530;2023-04-25T05:26:18;1.70;;;1.60;;
1460;SDS011;724;49.910;12.530;2023-04-25T05:28:45;1.60;;;1.50;;
1460;SDS011;724;49.910;12.530;2023-04-25T05:31:12;1.42;;;1.33;;
1460;SDS011;724;49.910;12.530;2023-04-25T05:33:39;1.52;;;1.42;;
1460;SDS011;724;49.910;12.530;2023-04-25T05:36:06;1.50;;;1.40;;
1460;SDS011;724;49.910;12.530;2023-04-25T05:38:33;1.60;;;1.50;;
1460;SDS011;724;49.910;12.530;2023-04-25T05:41:01;1.60;;;1.50;;
1460;SDS011;724;49.910;12.530;2023-04-25T05:43:28;1.50;;;1.40;;
1460;SDS011;724;49.910;12.530;2023-04-25T05:45:55;1.67;;;1.58;;
1460;SDS011;724;49.910;12.530;2023-04-25T05:48:22;1.80;;;1.70;;
1460;SDS011;724;49.910;12.530;2023-04-25T05:50:48;2.20;;;2.00;;
1460;SDS011;724;49.910;12.530;2023-04-25T05:53:16;2.53;;;2.33;;
1460;SDS011;724;49.910;12.530;2023-04-25T05:55:43;3.10;;;2.90;;
1460;SDS011;724;49.910;12.530;2023-04-25T05:58:11;3.53;;;3.33;;
1460;SDS011;724;49.910;12.530;2023-04-25T06:00:38;3.80;;;3.60;;
1460;SDS011;724;49.910;12.530;2023-04-25T06:03:06;3.70;;;3.50;;
1460;SDS011;724;49.910;12.530;2023-04-25T06:05:34;3.40;;;3.20;;
1460;SDS011;724;49.910;12.530;2023-04-25T06:08:01;3.30;;;3.10;;
1460;SDS011;724;49.910;12.530;2023-04-25T06:10:28;3.20;;;3.00;;
1460;SDS011;724;49.910;12.530;2023-04-25T06:12:55;3.40;;;3.20;;
1460;SDS011;724;49.910;12.530;2023-04-25T06:15:23;3.30;;;3.10;;
1460;SDS011;724;49.910;12.530;2023-04-25T06:17:49;3.30;;;3.10;;
1460;SDS011;724;49.910;12.530;2023-04-25T06:20:16;3.30;;;3.10;;
1460;SDS011;724;49.910;12.530;2023-04-25T06:22:44;3.10;;;2.90;;
1460;SDS011;724;49.910;12.530;2023-04-25T06:25:11;2.95;;;2.75;;
1460;SDS011;724;49.910;12.530;2023-04-25T06:27:38;3.03;;;2.83;;
1460;SDS011;724;49.910;12.530;2023-04-25T06:30:05;3.50;;;3.30;;
1460;SDS011;724;49.910;12.530;2023-04-25T06:32:34;3.90;;;3.70;;
1460;SDS011;724;49.910;12.530;2023-04-25T06:35:01;4.45;;;4.15;;
1460;SDS011;724;49.910;12.530;2023-04-25T06:37:28;5.00;;;4.70;;
1460;SDS011;724;49.910;12.530;2023-04-25T06:39:55;4.72;;;4.43;;
1460;SDS011;724;49.910;12.530;2023-04-25T06:42:22;5.50;;;5.20;;
1460;SDS011;724;49.910;12.530;2023-04-25T06:44:48;5.93;;;5.63;;
1460;SDS011;724;49.910;12.530;2023-04-25T06:47:15;6.10;;;5.80;;
1460;SDS011;724;49.910;12.530;2023-04-25T06:49:43;6.40;;;6.00;;
1460;SDS011;724;49.910;12.530;2023-04-25T06:52:10;5.97;;;5.68;;
1460;SDS011;724;49.910;12.530;2023-04-25T06:54:37;6.18;;;5.88;;
1460;SDS011;724;49.910;12.530;2023-04-25T06:57:03;5.40;;;5.10;;
1460;SDS011;724;49.910;12.530;2023-04-25T06:59:30;6.10;;;5.80;;
1460;SDS011;724;49.910;12.530;2023-04-25T07:01:57;6.20;;;5.90;;
1460;SDS011;724;49.910;12.530;2023-04-25T07:04:24;5.90;;;5.60;;
1460;SDS011;724;49.910;12.530;2023-04-25T07:06:52;5.40;;;5.10;;
1460;SDS011;724;49.910;12.530;2023-04-25T07:09:19;4.90;;;4.60;;
1460;SDS011;724;49.910;12.530;2023-04-25T07:11:46;4.70;;;4.40;;
1460;SDS011;724;49.910;12.530;2023-04-25T07:14:13;4.35;;;4.05;;
1460;SDS011;724;49.910;12.530;2023-04-25T07:16:40;4.50;;;4.20;;
1460;SDS011;724;49.910;12.530;2023-04-25T07:19:06;5.00;;;4.70;;
1460;SDS011;724;49.910;12.530;2023-04-25T07:21:33;6.30;;;5.95;;
1460;SDS011;724;49.910;12.530;2023-04-25T07:24:03;6.70;;;6.30;;
1460;SDS011;724;49.910;12.530;2023-04-25T07:26:30;7.30;;;6.90;;
1460;SDS011;724;49.910;12.530;2023-04-25T07:28:57;6.90;;;6.50;;
1460;SDS011;724;49.910;12.530;2023-04-25T07:31:24;6.80;;;6.40;;
1460;SDS011;724;49.910;12.530;2023-04-25T07:33:51;6.70;;;6.30;;
1460;SDS011;724;49.910;12.530;2023-04-25T07:36:18;6.50;;;6.10;;
1460;SDS011;724;49.910;12.530;2023-04-25T07:38:45;7.30;;;6.90;;
1460;SDS011;724;49.910;12.530;2023-04-25T07:41:14;8.10;;;7.70;;
1460;SDS011;724;49.910;12.530;2023-04-25T07:43:40;9.20;;;8.70;;
1460;SDS011;724;49.910;12.530;2023-04-25T07:46:07;9.90;;;9.40;;
1460;SDS011;724;49.910;12.530;2023-04-25T07:48:34;10.30;;;9.80;;
1460;SDS011;724;49.910;12.530;2023-04-25T07:51:01;11.20;;;10.60;;
1460;SDS011;724;49.910;12.530;2023-04-25T07:53:29;11.50;;;10.90;;
1460;SDS011;724;49.910;12.530;2023-04-25T07:55:57;12.20;;;11.60;;
1460;SDS011;724;49.910;12.530;2023-04-25T07:58:25;12.32;;;11.73;;
1460;SDS011;724;49.910;12.530;2023-04-25T08:00:52;12.82;;;12.13;;
1460;SDS011;724;49.910;12.530;2023-04-25T08:03:18;13.60;;;12.90;;
1460;SDS011;724;49.910;12.530;2023-04-25T08:05:46;13.10;;;12.40;;
1460;SDS011;724;49.910;12.530;2023-04-25T08:08:13;13.20;;;12.50;;
1460;SDS011;724;49.910;12.530;2023-04-25T08:10:39;14.10;;;13.40;;
1460;SDS011;724;49.910;12.530;2023-04-25T08:13:07;13.90;;;13.20;;
1460;SDS011;724;49.910;12.530;2023-04-25T08:15:35;13.35;;;12.65;;
1460;SDS011;724;49.910;12.530;2023-04-25T08:18:01;13.80;;;13.10;;
1460;SDS011;724;49.910;12.530;2023-04-25T08:20:28;13.60;;;12.90;;
1460;SDS011;724;49.910;12.530;2023-04-25T08:22:55;13.80;;;13.10;;
1460;SDS011;724;49.910;12.530;2023-04-25T08:25:22;13.70;;;13.00;;
1460;SDS011;724;49.910;12.530;2023-04-25T08:27:48;13.40;;;12.70;;
1460;SDS011;724;49.910;12.530;2023-04-25T08:30:15;14.60;;;13.90;;
1460;SDS011;724;49.910;12.530;2023-04-25T08:32:43;15.30;;;14.50;;
1460;SDS011;724;49.910;12.530;2023-04-25T08:35:10;15.70;;;14.90;;
1460;SDS011;724;49.910;12.530;2023-04-25T08:37:37;15.90;;;15.10;;
1460;SDS011;724;49.910;12.530;2023-04-25T08:40:04;15.80;;;15.00;;
1460;SDS011;724;49.910;12.530;2023-04-25T08:42:34;15.20;;;14.40;;
1460;SDS011;724;49.910;12.530;2023-04-25T08:45:03;15.80;;;15.00;;
1460;SDS011;724;49.910;12.530;2023-04-25T08:47:31;16.50;;;15.70;;
1460;SDS011;724;49.910;12.530;2023-04-25T08:50:01;15.77;;;14.98;;
1460;SDS011;724;49.910;12.530;2023-04-25T08:52:30;15.65;;;14.85;;
1460;SDS011;724;49.910;12.530;2023-04-25T08:55:02;15.73;;;14.93;;
1460;SDS011;724;49.910;12.530;2023-04-25T08:57:31;15.60;;;14.80;;
1460;SDS011;724;49.910;12.530;2023-04-25T08:59:59;15.80;;;15.00;;
1460;SDS011;724;49.910;12.530;2023-04-25T09:02:28;15.10;;;14.30;;
1460;SDS011;724;49.910;12.530;2023-04-25T09:04:56;14.90;;;14.10;;
1460;SDS011;724;49.910;12.530;2023-04-25T09:07:25;15.10;;;14.30;;
1460;SDS011;724;49.910;12.530;2023-04-25T09:09:51;15.50;;;14.70;;
1460;SDS011;724;49.910;12.530;2023-04-25T09:12:19;15.15;;;14.35;;
1460;SDS011;724;49.910;12.530;2023-04-25T09:15:00;15.40;;;14.60;;
1460;SDS011;724;49.910;12.530;2023-04-25T09:17:30;15.40;;;14.60;;
1460;SDS011;724;49.910;12.530;2023-04-25T09:20:05;15.95;;;15.15;;
1460;SDS011;724;49.910;12.530;2023-04-25T09:22:35;15.80;;;15.00;;
1460;SDS011;724;49.910;12.530;2023-04-25T09:25:03;15.80;;;15.00;;
1460;SDS011;724;49.910;12.530;2023-04-25T09:27:33;15.82;;;15.02;;
1460;SDS011;724;49.910;12.530;2023-04-25T09:30:00;15.95;;;15.15;;
1460;SDS011;724;49.910;12.530;2023-04-25T09:32:28;15.60;;;14.80;;
1460;SDS011;724;49.910;12.530;2023-04-25T09:34:56;15.90;;;15.10;;
1460;SDS011;724;49.910;12.530;2023-04-25T09:37:23;15.73;;;14.93;;
1460;SDS011;724;49.910;12.530;2023-04-25T09:39:52;16.00;;;15.20;;
1460;SDS011;724;49.910;12.530;2023-04-25T09:42:21;15.50;;;14.70;;
1460;SDS011;724;49.910;12.530;2023-04-25T09:44:49;15.63;;;14.82;;
1460;SDS011;724;49.910;12.530;2023-04-25T09:47:20;15.20;;;14.40;;
1460;SDS011;724;49.910;12.530;2023-04-25T09:49:48;15.10;;;14.30;;
1460;SDS011;724;49.910;12.530;2023-04-25T09:52:16;15.10;;;14.30;;
1460;SDS011;724;49.910;12.530;2023-04-25T09:54:44;14.65;;;13.93;;
1460;SDS011;724;49.910;12.530;2023-04-25T09:57:13;14.35;;;13.65;;
1460;SDS011;724;49.910;12.530;2023-04-25T09:59:43;14.20;;;13.50;;
1460;SDS011;724;49.910;12.530;2023-04-25T10:02:11;14.30;;;13.60;;
1460;SDS011;724;49.910;12.530;2023-04-25T10:04:38;14.50;;;13.80;;
1460;SDS011;724;49.910;12.530;2023-04-25T10:07:07;14.48;;;13.77;;
1460;SDS011;724;49.910;12.530;2023-04-25T10:09:36;14.95;;;14.15;;
1460;SDS011;724;49.910;12.530;2023-04-25T10:12:05;15.70;;;14.90;;
1460;SDS011;724;49.910;12.530;2023-04-25T10:14:34;16.98;;;16.08;;
1460;SDS011;724;49.910;12.530;2023-04-25T10:17:02;16.90;;;16.00;;
1460;SDS011;724;49.910;12.530;2023-04-25T10:19:29;17.30;;;16.40;;
1460;SDS011;724;49.910;12.530;2023-04-25T10:21:58;17.47;;;16.57;;
1460;SDS011;724;49.910;12.530;2023-04-25T10:24:33;16.60;;;15.80;;
1460;SDS011;724;49.910;12.530;2023-04-25T10:27:01;17.50;;;16.60;;
1460;SDS011;724;49.910;12.530;2023-04-25T10:29:29;16.60;;;15.80;;
1460;SDS011;724;49.910;12.530;2023-04-25T10:31:57;15.70;;;14.90;;
1460;SDS011;724;49.910;12.530;2023-04-25T10:34:24;15.60;;;14.80;;
1460;SDS011;724;49.910;12.530;2023-04-25T10:37:04;15.50;;;14.70;;
1460;SDS011;724;49.910;12.530;2023-04-25T10:39:32;15.60;;;14.80;;
1460;SDS011;724;49.910;12.530;2023-04-25T10:41:59;15.90;;;15.10;;
1460;SDS011;724;49.910;12.530;2023-04-25T10:44:28;14.60;;;13.90;;
1460;SDS011;724;49.910;12.530;2023-04-25T10:46:57;15.20;;;14.40;;
1460;SDS011;724;49.910;12.530;2023-04-25T10:49:29;15.30;;;14.50;;
1460;SDS011;724;49.910;12.530;2023-04-25T10:52:10;15.40;;;14.60;;
1460;SDS011;724;49.910;12.530;2023-04-25T10:54:42;15.80;;;15.00;;
1460;SDS011;724;49.910;12.530;2023-04-25T10:57:28;15.50;;;14.70;;
1460;SDS011;724;49.910;12.530;2023-04-25T10:59:58;15.88;;;15.07;;
1460;SDS011;724;49.910;12.530;2023-04-25T11:02:33;15.30;;;14.50;;
1460;SDS011;724;49.910;12.530;2023-04-25T11:05:04;15.13;;;14.32;;
1460;SDS011;724;49.910;12.530;2023-04-25T11:07:33;15.40;;;14.60;;
1460;SDS011;724;49.910;12.530;2023-04-25T11:10:04;15.70;;;14.90;;
1460;SDS011;724;49.910;12.530;2023-04-25T11:12:31;15.90;;;15.10;;
1460;SDS011;724;49.910;12.530;2023-04-25T11:14:59;15.60;;;14.80;;
1460;SDS011;724;49.910;12.530;2023-04-25T11:17:26;15.20;;;14.40;;
1460;SDS011;724;49.910;12.530;2023-04-25T11:19:55;15.25;;;14.45;;
1460;SDS011;724;49.910;12.530;2023-04-25T11:22:22;15.45;;;14.65;;
1460;SDS011;724;49.910;12.530;2023-04-25T11:24:49;15.60;;;14.80;;
1460;SDS011;724;49.910;12.530;2023-04-25T11:27:16;15.50;;;14.70;;
1460;SDS011;724;49.910;12.530;2023-04-25T11:29:43;14.90;;;14.10;;
1460;SDS011;724;49.910;12.530;2023-04-25T11:32:14;15.30;;;14.50;;
1460;SDS011;724;49.910;12.530;2023-04-25T11:34:42;15.10;;;14.30;;
1460;SDS011;724;49.910;12.530;2023-04-25T11:37:11;15.48;;;14.68;;
1460;SDS011;724;49.910;12.530;2023-04-25T11:39:40;15.70;;;14.90;;
1460;SDS011;724;49.910;12.530;2023-04-25T11:42:10;16.00;;;15.20;;
1460;SDS011;724;49.910;12.530;2023-04-25T11:44:37;15.27;;;14.48;;
1460;SDS011;724;49.910;12.530;2023-04-25T11:47:05;15.32;;;14.52;;
1460;SDS011;724;49.910;12.530;2023-04-25T11:49:32;15.10;;;14.30;;
1460;SDS011;724;49.910;12.530;2023-04-25T11:52:00;15.70;;;14.90;;
1460;SDS011;724;49.910;12.530;2023-04-25T11:54:28;16.17;;;15.38;;
1460;SDS011;724;49.910;12.530;2023-04-25T11:56:55;15.20;;;14.40;;
1460;SDS011;724;49.910;12.530;2023-04-25T11:59:22;15.10;;;14.30;;
1460;SDS011;724;49.910;12.530;2023-04-25T12:01:51;16.42;;;15.63;;
1460;SDS011;724;49.910;12.530;2023-04-25T12:04:18;16.30;;;15.50;;
1460;SDS011;724;49.910;12.530;2023-04-25T12:06:46;16.50;;;15.70;;
1460;SDS011;724;49.910;12.530;2023-04-25T12:09:16;16.33;;;15.52;;
1460;SDS011;724;49.910;12.530;2023-04-25T12:11:45;16.90;;;16.00;;
1460;SDS011;724;49.910;12.530;2023-04-25T12:14:20;16.50;;;15.70;;
1460;SDS011;724;49.910;12.530;2023-04-25T12:16:48;16.10;;;15.30;;
1460;SDS011;724;49.910;12.530;2023-04-25T12:19:16;16.10;;;15.30;;
1460;SDS011;724;49.910;12.530;2023-04-25T12:21:44;15.90;;;15.10;;
1460;SDS011;724;49.910;12.530;2023-04-25T12:24:12;16.00;;;15.20;;
1460;SDS011;724;49.910;12.530;2023-04-25T12:26:47;15.80;;;15.00;;
1460;SDS011;724;49.910;12.530;2023-04-25T12:29:19;15.60;;;14.80;;
1460;SDS011;724;49.910;12.530;2023-04-25T12:31:47;15.40;;;14.60;;
1460;SDS011;724;49.910;12.530;2023-04-25T12:34:14;14.60;;;13.90;;
1460;SDS011;724;49.910;12.530;2023-04-25T12:36:41;15.20;;;14.40;;
1460;SDS011;724;49.910;12.530;2023-04-25T12:39:08;14.90;;;14.10;;
1460;SDS011;724;49.910;12.530;2023-04-25T12:41:40;15.82;;;15.02;;
1460;SDS011;724;49.910;12.530;2023-04-25T12:44:08;16.10;;;15.30;;
1460;SDS011;724;49.910;12.530;2023-04-25T12:46:35;16.70;;;15.90;;
1460;SDS011;724;49.910;12.530;2023-04-25T12:49:03;17.10;;;16.20;;
1460;SDS011;724;49.910;12.530;2023-04-25T12:51:31;17.20;;;16.30;;
1460;SDS011;724;49.910;12.530;2023-04-25T12:53:58;17.10;;;16.20;;
1460;SDS011;724;49.910;12.530;2023-04-25T12:56:25;16.50;;;15.70;;
1460;SDS011;724;49.910;12.530;2023-04-25T12:58:52;16.30;;;15.50;;
1460;SDS011;724;49.910;12.530;2023-04-25T13:01:20;16.40;;;15.60;;
1460;SDS011;724;49.910;12.530;2023-04-25T13:03:47;16.20;;;15.40;;
1460;SDS011;724;49.910;12.530;2023-04-25T13:06:14;16.20;;;15.40;;
1460;SDS011;724;49.910;12.530;2023-04-25T13:08:41;16.40;;;15.60;;
1460;SDS011;724;49.910;12.530;2023-04-25T13:11:09;16.13;;;15.32;;
1460;SDS011;724;49.910;12.530;2023-04-25T13:13:36;16.20;;;15.40;;
1460;SDS011;724;49.910;12.530;2023-04-25T13:16:04;16.45;;;15.65;;
1460;SDS011;724;49.910;12.530;2023-04-25T13:18:33;16.00;;;15.20;;
1460;SDS011;724;49.910;12.530;2023-04-25T13:21:00;15.98;;;15.18;;
1460;SDS011;724;49.910;12.530;2023-04-25T13:23:28;15.60;;;14.80;;
1460;SDS011;724;49.910;12.530;2023-04-25T13:25:55;15.60;;;14.80;;
1460;SDS011;724;49.910;12.530;2023-04-25T13:28:23;15.55;;;14.75;;
1460;SDS011;724;49.910;12.530;2023-04-25T13:30:50;15.70;;;14.90;;
1460;SDS011;724;49.910;12.530;2023-04-25T13:33:17;15.70;;;14.90;;
1460;SDS011;724;49.910;12.530;2023-04-25T13:35:45;15.30;;;14.50;;
1460;SDS011;724;49.910;12.530;2023-04-25T13:38:18;15.80;;;15.00;;
1460;SDS011;724;49.910;12.530;2023-04-25T13:40:46;16.10;;;15.30;;
1460;SDS011;724;49.910;12.530;2023-04-25T13:43:12;15.23;;;14.43;;
1460;SDS011;724;49.910;12.530;2023-04-25T13:45:39;16.10;;;15.30;;
1460;SDS011;724;49.910;12.530;2023-04-25T13:48:07;15.50;;;14.70;;
1460;SDS011;724;49.910;12.530;2023-04-25T13:50:34;16.00;;;15.20;;
1460;SDS011;724;49.910;12.530;2023-04-25T13:53:02;15.98;;;15.18;;
1460;SDS011;724;49.910;12.530;2023-04-25T13:55:29;15.10;;;14.30;;
1460;SDS011;724;49.910;12.530;2023-04-25T13:57:56;15.20;;;14.40;;
1460;SDS011;724;49.910;12.530;2023-04-25T14:00:22;15.55;;;14.75;;
1460;SDS011;724;49.910;12.530;2023-04-25T14:02:49;15.98;;;15.18;;
1460;SDS011;724;49.910;12.530;2023-04-25T14:05:16;15.95;;;15.15;;
1460;SDS011;724;49.910;12.530;2023-04-25T14:07:43;15.50;;;14.70;;
1460;SDS011;724;49.910;12.530;2023-04-25T14:10:11;15.13;;;14.32;;
1460;SDS011;724;49.910;12.530;2023-04-25T14:12:38;15.00;;;14.20;;
1460;SDS011;724;49.910;12.530;2023-04-25T14:15:05;14.80;;;14.00;;
1460;SDS011;724;49.910;12.530;2023-04-25T14:17:32;14.90;;;14.10;;
1460;SDS011;724;49.910;12.530;2023-04-25T14:19:59;14.60;;;13.90;;
1460;SDS011;724;49.910;12.530;2023-04-25T14:22:26;14.90;;;14.10;;
1460;SDS011;724;49.910;12.530;2023-04-25T14:24:53;14.60;;;13.90;;
1460;SDS011;724;49.910;12.530;2023-04-25T14:27:21;14.40;;;13.70;;
1460;SDS011;724;49.910;12.530;2023-04-25T14:29:48;14.60;;;13.90;;
1460;SDS011;724;49.910;12.530;2023-04-25T14:32:14;14.10;;;13.40;;
1460;SDS011;724;49.910;12.530;2023-04-25T14:34:41;14.10;;;13.40;;
1460;SDS011;724;49.910;12.530;2023-04-25T14:37:08;13.60;;;12.90;;
1460;SDS011;724;49.910;12.530;2023-04-25T14:39:34;13.90;;;13.20;;
1460;SDS011;724;49.910;12.530;2023-04-25T14:42:01;13.63;;;12.93;;
1460;SDS011;724;49.910;12.530;2023-04-25T14:44:30;14.00;;;13.30;;
1460;SDS011;724;49.910;12.530;2023-04-25T14:46:56;13.90;;;13.20;;
1460;SDS011;724;49.910;12.530;2023-04-25T14:49:23;14.30;;;13.60;;
1460;SDS011;724;49.910;12.530;2023-04-25T14:51:50;14.35;;;13.65;;
1460;SDS011;724;49.910;12.530;2023-04-25T14:54:17;14.40;;;13.70;;
1460;SDS011;724;49.910;12.530;2023-04-25T14:56:44;14.30;;;13.60;;
1460;SDS011;724;49.910;12.530;2023-04-25T14:59:11;14.40;;;13.70;;
1460;SDS011;724;49.910;12.530;2023-04-25T15:01:39;14.30;;;13.60;;
1460;SDS011;724;49.910;12.530;2023-04-25T15:04:06;14.40;;;13.70;;
1460;SDS011;724;49.910;12.530;2023-04-25T15:06:33;14.20;;;13.50;;